sensor_id;sensor_type;location;lat;lon;timestamp;pressure;altitude;pressure_sealevel;temperature;humidity
1652;BME280;823;49.028;8.454;2023-02-18T00:04:02;101384.75;;;15.56;54.26
1652;BME280;823;49.028;8.454;2023-02-18T00:09:04;101395.50;;;15.70;53.81
1652;BME280;823;49.028;8.454;2023-02-18T00:14:10;101387.66;;;15.94;53.25
1652;BME280;823;49.028;8.454;2023-02-18T00:19:14;101395.16;;;15.79;53.35
1652;BME280;823;49.028;8.454;2023-02-18T00:24:15;101393.38;;;15.81;53.48
1652;BME280;823;49.028;8.454;2023-02-18T00:29:16;101394.34;;;15.77;53.79
1652;BME280;823;49.028;8.454;2023-02-18T00:34:16;101392.47;;;15.82;53.40
1652;BME280;823;49.028;8.454;2023-02-18T00:39:16;101392.94;;;15.69;53.81
1652;BME280;823;49.028;8.454;2023-02-18T00:44:17;101390.69;;;15.83;53.40
1652;BME280;823;49.028;8.454;2023-02-18T00:49:17;101393.19;;;15.86;53.41
1652;BME280;823;49.028;8.454;2023-02-18T00:54:17;101374.53;;;15.73;53.85
1652;BME280;823;49.028;8.454;2023-02-18T00:59:17;101385.03;;;15.72;53.97
1652;BME280;823;49.028;8.454;2023-02-18T01:04:18;101379.41;;;15.82;53.72
1652;BME280;823;49.028;8.454;2023-02-18T01:09:18;101372.94;;;15.69;53.79
1652;BME280;823;49.028;8.454;2023-02-18T01:14:18;101382.06;;;15.57;54.36
1652;BME280;823;49.028;8.454;2023-02-18T01:19:19;101382.28;;;15.75;53.59
1652;BME280;823;49.028;8.454;2023-02-18T01:24:19;101380.50;;;15.75;54.00
1652;BME280;823;49.028;8.454;2023-02-18T01:29:20;101376.97;;;15.54;54.46
1652;BME280;823;49.028;8.454;2023-02-18T01:34:20;101366.84;;;15.69;53.94
1652;BME280;823;49.028;8.454;2023-02-18T01:39:20;101364.78;;;15.55;54.39
1652;BME280;823;49.028;8.454;2023-02-18T01:44:24;101362.16;;;15.56;54.18
1652;BME280;823;49.028;8.454;2023-02-18T01:49:29;101365.06;;;15.71;53.90
1652;BME280;823;49.028;8.454;2023-02-18T01:54:33;101365.88;;;15.71;53.96
1652;BME280;823;49.028;8.454;2023-02-18T01:59:55;101372.50;;;15.58;54.13
1652;BME280;823;49.028;8.454;2023-02-18T02:04:57;101356.63;;;15.64;53.97
1652;BME280;823;49.028;8.454;2023-02-18T02:09:58;101351.56;;;15.37;54.97
1652;BME280;823;49.028;8.454;2023-02-18T02:15:08;101356.97;;;15.31;55.21
1652;BME280;823;49.028;8.454;2023-02-18T02:26:10;101357.97;;;15.50;54.83
1652;BME280;823;49.028;8.454;2023-02-18T02:36:30;101352.00;;;15.48;55.21
1652;BME280;823;49.028;8.454;2023-02-18T02:46:46;101366.88;;;15.45;56.03
1652;BME280;823;49.028;8.454;2023-02-18T02:51:53;101344.31;;;15.22;56.58
1652;BME280;823;49.028;8.454;2023-02-18T02:57:53;101333.59;;;15.29;56.22
1652;BME280;823;49.028;8.454;2023-02-18T03:23:56;101299.41;;;15.15;56.56
1652;BME280;823;49.028;8.454;2023-02-18T03:29:01;101291.00;;;15.30;56.14
1652;BME280;823;49.028;8.454;2023-02-18T03:34:09;101295.25;;;15.09;56.61
1652;BME280;823;49.028;8.454;2023-02-18T03:39:14;101287.03;;;15.20;56.58
1652;BME280;823;49.028;8.454;2023-02-18T03:44:15;101297.97;;;15.30;55.88
1652;BME280;823;49.028;8.454;2023-02-18T03:49:15;101277.59;;;15.18;56.40
1652;BME280;823;49.028;8.454;2023-02-18T03:54:15;101282.56;;;15.24;56.27
1652;BME280;823;49.028;8.454;2023-02-18T03:59:16;101275.03;;;15.16;56.30
1652;BME280;823;49.028;8.454;2023-02-18T04:04:16;101273.63;;;15.07;56.48
1652;BME280;823;49.028;8.454;2023-02-18T04:09:16;101284.38;;;15.22;56.24
1652;BME280;823;49.028;8.454;2023-02-18T04:14:17;101284.41;;;15.20;56.26
1652;BME280;823;49.028;8.454;2023-02-18T04:19:17;101286.53;;;15.34;55.82
1652;BME280;823;49.028;8.454;2023-02-18T04:24:17;101284.81;;;15.33;55.76
1652;BME280;823;49.028;8.454;2023-02-18T04:29:18;101287.53;;;15.06;56.58
1652;BME280;823;49.028;8.454;2023-02-18T04:34:18;101285.81;;;15.07;56.64
1652;BME280;823;49.028;8.454;2023-02-18T04:39:18;101281.88;;;15.19;56.58
1652;BME280;823;49.028;8.454;2023-02-18T04:44:19;101280.84;;;15.23;56.15
1652;BME280;823;49.028;8.454;2023-02-18T04:49:19;101297.38;;;15.45;55.49
1652;BME280;823;49.028;8.454;2023-02-18T04:54:19;101287.41;;;15.33;55.93
1652;BME280;823;49.028;8.454;2023-02-18T04:59:20;101275.19;;;15.11;56.72
1652;BME280;823;49.028;8.454;2023-02-18T05:04:20;101278.16;;;15.26;56.18
1652;BME280;823;49.028;8.454;2023-02-18T05:09:21;101267.44;;;15.10;56.69
1652;BME280;823;49.028;8.454;2023-02-18T05:14:21;101265.22;;;15.23;56.46
1652;BME280;823;49.028;8.454;2023-02-18T05:19:21;101270.41;;;15.23;56.28
1652;BME280;823;49.028;8.454;2023-02-18T05:24:22;101256.38;;;15.27;56.47
1652;BME280;823;49.028;8.454;2023-02-18T05:29:23;101253.03;;;15.23;56.36
1652;BME280;823;49.028;8.454;2023-02-18T05:34:23;101240.91;;;15.22;56.57
1652;BME280;823;49.028;8.454;2023-02-18T05:39:24;101249.47;;;15.26;56.68
1652;BME280;823;49.028;8.454;2023-02-18T05:44:24;101243.59;;;15.21;56.67
1652;BME280;823;49.028;8.454;2023-02-18T05:49:31;101228.63;;;15.26;56.45
1652;BME280;823;49.028;8.454;2023-02-18T05:54:32;101241.22;;;15.37;56.11
1652;BME280;823;49.028;8.454;2023-02-18T05:59:33;101232.75;;;15.09;56.59
1652;BME280;823;49.028;8.454;2023-02-18T06:04:33;101234.38;;;15.12;56.96
1652;BME280;823;49.028;8.454;2023-02-18T06:09:34;101236.97;;;15.12;56.59
1652;BME280;823;49.028;8.454;2023-02-18T06:14:34;101238.03;;;15.06;56.79
1652;BME280;823;49.028;8.454;2023-02-18T06:19:34;101236.78;;;15.17;56.53
1652;BME280;823;49.028;8.454;2023-02-18T06:24:35;101235.84;;;15.19;56.40
1652;BME280;823;49.028;8.454;2023-02-18T06:29:35;101232.66;;;15.11;56.72
1652;BME280;823;49.028;8.454;2023-02-18T06:34:35;101227.06;;;14.98;57.25
1652;BME280;823;49.028;8.454;2023-02-18T06:39:38;101229.56;;;15.01;56.99
1652;BME280;823;49.028;8.454;2023-02-18T06:44:38;101221.06;;;14.96;57.12
1652;BME280;823;49.028;8.454;2023-02-18T06:49:38;101218.47;;;14.96;57.35
1652;BME280;823;49.028;8.454;2023-02-18T06:54:39;101211.91;;;15.09;56.61
1652;BME280;823;49.028;8.454;2023-02-18T06:59:39;101201.56;;;15.06;56.86
1652;BME280;823;49.028;8.454;2023-02-18T07:04:39;101202.78;;;15.20;55.98
1652;BME280;823;49.028;8.454;2023-02-18T07:09:39;101193.66;;;15.09;56.36
1652;BME280;823;49.028;8.454;2023-02-18T07:14:40;101191.22;;;15.05;56.43
1652;BME280;823;49.028;8.454;2023-02-18T07:19:40;101177.09;;;15.32;55.80
1652;BME280;823;49.028;8.454;2023-02-18T07:24:40;101174.94;;;15.22;55.87
1652;BME280;823;49.028;8.454;2023-02-18T07:29:41;101175.47;;;15.30;55.43
1652;BME280;823;49.028;8.454;2023-02-18T07:34:41;101163.47;;;15.26;55.53
1652;BME280;823;49.028;8.454;2023-02-18T07:39:42;101155.41;;;15.32;54.89
1652;BME280;823;49.028;8.454;2023-02-18T07:44:42;101175.78;;;15.22;55.17
1652;BME280;823;49.028;8.454;2023-02-18T07:49:43;101155.81;;;15.64;53.72
1652;BME280;823;49.028;8.454;2023-02-18T07:54:43;101166.09;;;15.46;53.82
1652;BME280;823;49.028;8.454;2023-02-18T07:59:43;101173.00;;;15.47;53.72
1652;BME280;823;49.028;8.454;2023-02-18T08:04:44;101163.75;;;15.40;53.87
1652;BME280;823;49.028;8.454;2023-02-18T08:09:44;101153.47;;;15.37;53.62
1652;BME280;823;49.028;8.454;2023-02-18T08:14:44;101145.38;;;15.64;53.21
1652;BME280;823;49.028;8.454;2023-02-18T08:19:44;101146.34;;;15.83;52.49
1652;BME280;823;49.028;8.454;2023-02-18T08:24:45;101152.88;;;15.94;52.27
1652;BME280;823;49.028;8.454;2023-02-18T08:29:45;101148.53;;;16.13;51.77
1652;BME280;823;49.028;8.454;2023-02-18T08:34:45;101143.31;;;16.13;51.59
1652;BME280;823;49.028;8.454;2023-02-18T08:39:46;101132.44;;;16.04;51.75
1652;BME280;823;49.028;8.454;2023-02-18T08:44:46;101144.63;;;16.03;51.83
1652;BME280;823;49.028;8.454;2023-02-18T08:49:46;101139.69;;;15.97;52.40
1652;BME280;823;49.028;8.454;2023-02-18T08:54:47;101137.22;;;16.13;51.69
1652;BME280;823;49.028;8.454;2023-02-18T08:59:48;101141.72;;;16.30;51.90
1652;BME280;823;49.028;8.454;2023-02-18T09:04:48;101135.56;;;16.31;51.64
1652;BME280;823;49.028;8.454;2023-02-18T09:09:48;101130.72;;;16.03;52.35
1652;BME280;823;49.028;8.454;2023-02-18T09:14:48;101145.31;;;16.27;51.48
1652;BME280;823;49.028;8.454;2023-02-18T09:19:49;101144.16;;;16.14;51.81
1652;BME280;823;49.028;8.454;2023-02-18T09:24:49;101136.00;;;16.22;51.78
1652;BME280;823;49.028;8.454;2023-02-18T09:29:50;101127.69;;;16.32;51.48
1652;BME280;823;49.028;8.454;2023-02-18T09:34:50;101120.88;;;16.09;51.96
1652;BME280;823;49.028;8.454;2023-02-18T09:39:50;101114.34;;;15.99;52.28
1652;BME280;823;49.028;8.454;2023-02-18T09:44:53;101108.63;;;16.30;51.14
1652;BME280;823;49.028;8.454;2023-02-18T09:49:59;101109.03;;;16.40;50.86
1652;BME280;823;49.028;8.454;2023-02-18T09:55:16;101116.53;;;16.48;50.43
1652;BME280;823;49.028;8.454;2023-02-18T10:00:33;101128.38;;;16.36;50.68
1652;BME280;823;49.028;8.454;2023-02-18T10:05:35;101149.41;;;16.71;50.09
1652;BME280;823;49.028;8.454;2023-02-18T10:10:39;101152.22;;;16.85;49.29
1652;BME280;823;49.028;8.454;2023-02-18T10:15:41;101150.41;;;16.68;49.87
1652;BME280;823;49.028;8.454;2023-02-18T10:20:42;101158.78;;;16.75;49.70
1652;BME280;823;49.028;8.454;2023-02-18T10:25:45;101158.16;;;16.70;49.99
1652;BME280;823;49.028;8.454;2023-02-18T10:30:51;101152.78;;;16.73;49.73
1652;BME280;823;49.028;8.454;2023-02-18T10:36:03;101158.44;;;16.26;50.76
1652;BME280;823;49.028;8.454;2023-02-18T10:41:24;101164.94;;;16.74;50.26
1652;BME280;823;49.028;8.454;2023-02-18T10:51:36;101137.06;;;16.56;50.43
1652;BME280;823;49.028;8.454;2023-02-18T11:01:41;101125.03;;;16.71;50.38
1652;BME280;823;49.028;8.454;2023-02-18T11:06:47;101134.69;;;16.88;50.12
1652;BME280;823;49.028;8.454;2023-02-18T11:11:48;101126.66;;;17.11;49.85
1652;BME280;823;49.028;8.454;2023-02-18T11:16:48;101125.09;;;16.88;50.56
1652;BME280;823;49.028;8.454;2023-02-18T11:22:14;101129.41;;;17.26;49.80
1652;BME280;823;49.028;8.454;2023-02-18T11:27:27;101136.63;;;17.03;49.92
1652;BME280;823;49.028;8.454;2023-02-18T11:32:32;101139.44;;;17.35;49.66
1652;BME280;823;49.028;8.454;2023-02-18T11:37:34;101126.75;;;17.45;48.96
1652;BME280;823;49.028;8.454;2023-02-18T11:42:36;101125.88;;;17.62;48.41
1652;BME280;823;49.028;8.454;2023-02-18T11:47:36;101121.59;;;17.43;48.38
1652;BME280;823;49.028;8.454;2023-02-18T11:52:42;101125.81;;;17.46;48.57
1652;BME280;823;49.028;8.454;2023-02-18T11:57:57;101116.03;;;17.49;48.29
1652;BME280;823;49.028;8.454;2023-02-18T12:02:58;101116.22;;;17.46;48.46
1652;BME280;823;49.028;8.454;2023-02-18T12:08:12;101114.97;;;17.36;48.32
1652;BME280;823;49.028;8.454;2023-02-18T12:24:05;101104.78;;;17.12;48.97
1652;BME280;823;49.028;8.454;2023-02-18T12:34:34;101099.88;;;17.24;49.05
1652;BME280;823;49.028;8.454;2023-02-18T12:45:16;101069.75;;;16.99;49.13
1652;BME280;823;49.028;8.454;2023-02-18T13:06:46;101075.97;;;16.77;49.47
1652;BME280;823;49.028;8.454;2023-02-18T13:17:09;101084.88;;;16.73;50.09
1652;BME280;823;49.028;8.454;2023-02-18T13:22:11;101059.94;;;16.48;50.16
1652;BME280;823;49.028;8.454;2023-02-18T13:32:38;101056.47;;;16.67;47.29
1652;BME280;823;49.028;8.454;2023-02-18T13:43:27;101051.28;;;16.65;46.36
1652;BME280;823;49.028;8.454;2023-02-18T13:48:28;101039.88;;;16.85;45.53
1652;BME280;823;49.028;8.454;2023-02-18T13:53:31;101037.91;;;16.54;45.50
1652;BME280;823;49.028;8.454;2023-02-18T13:58:49;101019.34;;;16.78;44.52
1652;BME280;823;49.028;8.454;2023-02-18T14:03:55;101035.31;;;16.91;44.05
1652;BME280;823;49.028;8.454;2023-02-18T14:19:28;101026.56;;;17.27;42.40
1652;BME280;823;49.028;8.454;2023-02-18T14:24:52;101036.28;;;17.06;42.63
1652;BME280;823;49.028;8.454;2023-02-18T14:30:04;101038.66;;;17.45;40.90
1652;BME280;823;49.028;8.454;2023-02-18T14:35:22;101032.84;;;17.23;41.31
1652;BME280;823;49.028;8.454;2023-02-18T14:40:36;101034.16;;;16.96;41.88
1652;BME280;823;49.028;8.454;2023-02-18T14:51:08;101036.25;;;17.07;41.91
1652;BME280;823;49.028;8.454;2023-02-18T14:56:12;101036.22;;;16.90;42.06
1652;BME280;823;49.028;8.454;2023-02-18T15:01:25;101041.75;;;17.01;41.80
1652;BME280;823;49.028;8.454;2023-02-18T15:06:36;101039.47;;;16.95;41.81
1652;BME280;823;49.028;8.454;2023-02-18T15:11:50;101048.38;;;16.91;42.20
1652;BME280;823;49.028;8.454;2023-02-18T15:16:54;101037.31;;;17.03;42.31
1652;BME280;823;49.028;8.454;2023-02-18T15:21:56;101032.88;;;16.86;42.38
1652;BME280;823;49.028;8.454;2023-02-18T15:27:02;101035.84;;;16.97;42.48
1652;BME280;823;49.028;8.454;2023-02-18T15:32:18;101022.75;;;16.80;42.80
1652;BME280;823;49.028;8.454;2023-02-18T15:37:19;101019.41;;;16.76;43.06
1652;BME280;823;49.028;8.454;2023-02-18T15:47:27;101019.47;;;16.57;43.48
1652;BME280;823;49.028;8.454;2023-02-18T15:52:31;101039.03;;;16.48;43.25
1652;BME280;823;49.028;8.454;2023-02-18T15:57:34;101041.41;;;16.53;43.30
1652;BME280;823;49.028;8.454;2023-02-18T16:02:35;101027.44;;;16.54;43.91
1652;BME280;823;49.028;8.454;2023-02-18T16:07:47;101027.13;;;16.43;44.27
1652;BME280;823;49.028;8.454;2023-02-18T16:12:51;101036.94;;;16.38;44.10
1652;BME280;823;49.028;8.454;2023-02-18T16:17:53;101032.97;;;16.48;44.18
1652;BME280;823;49.028;8.454;2023-02-18T16:22:53;101023.13;;;16.16;44.77
1652;BME280;823;49.028;8.454;2023-02-18T16:28:15;101025.38;;;16.05;44.88
1652;BME280;823;49.028;8.454;2023-02-18T16:33:16;101027.50;;;15.97;45.61
1652;BME280;823;49.028;8.454;2023-02-18T16:38:19;101035.66;;;15.89;45.86
1652;BME280;823;49.028;8.454;2023-02-18T16:43:22;101056.19;;;15.76;46.81
1652;BME280;823;49.028;8.454;2023-02-18T16:48:38;101039.81;;;15.73;46.45
1652;BME280;823;49.028;8.454;2023-02-18T16:53:39;101053.38;;;15.62;46.95
1652;BME280;823;49.028;8.454;2023-02-18T16:58:40;101059.72;;;15.55;46.96
1652;BME280;823;49.028;8.454;2023-02-18T17:03:40;101062.75;;;15.66;47.10
1652;BME280;823;49.028;8.454;2023-02-18T17:08:40;101052.25;;;15.47;47.50
1652;BME280;823;49.028;8.454;2023-02-18T17:13:41;101072.25;;;15.26;48.10
1652;BME280;823;49.028;8.454;2023-02-18T17:18:42;101075.34;;;15.36;47.95
1652;BME280;823;49.028;8.454;2023-02-18T17:23:43;101074.25;;;14.98;49.05
1652;BME280;823;49.028;8.454;2023-02-18T17:28:43;101075.91;;;15.22;48.31
1652;BME280;823;49.028;8.454;2023-02-18T17:33:44;101088.00;;;15.23;48.27
1652;BME280;823;49.028;8.454;2023-02-18T17:38:45;101100.94;;;15.26;48.45
1652;BME280;823;49.028;8.454;2023-02-18T17:43:46;101107.19;;;15.22;48.44
1652;BME280;823;49.028;8.454;2023-02-18T17:48:46;101119.19;;;15.26;48.33
1652;BME280;823;49.028;8.454;2023-02-18T17:53:46;101096.84;;;15.19;48.82
1652;BME280;823;49.028;8.454;2023-02-18T17:58:47;101106.72;;;15.12;48.50
1652;BME280;823;49.028;8.454;2023-02-18T18:03:47;101117.22;;;15.31;48.19
1652;BME280;823;49.028;8.454;2023-02-18T18:08:48;101118.06;;;15.31;48.03
1652;BME280;823;49.028;8.454;2023-02-18T18:13:49;101110.69;;;15.21;48.44
1652;BME280;823;49.028;8.454;2023-02-18T18:18:51;101109.09;;;15.39;48.01
1652;BME280;823;49.028;8.454;2023-02-18T18:23:52;101127.78;;;15.06;49.12
1652;BME280;823;49.028;8.454;2023-02-18T18:28:52;101113.34;;;15.19;48.63
1652;BME280;823;49.028;8.454;2023-02-18T18:33:52;101117.00;;;15.15;48.63
1652;BME280;823;49.028;8.454;2023-02-18T18:38:53;101126.31;;;15.21;48.30
1652;BME280;823;49.028;8.454;2023-02-18T18:43:53;101136.56;;;15.03;48.87
1652;BME280;823;49.028;8.454;2023-02-18T18:48:53;101138.47;;;15.00;49.11
1652;BME280;823;49.028;8.454;2023-02-18T18:53:54;101128.53;;;15.09;48.73
1652;BME280;823;49.028;8.454;2023-02-18T18:58:54;101125.53;;;15.19;48.43
1652;BME280;823;49.028;8.454;2023-02-18T19:03:54;101123.41;;;14.84;49.36
1652;BME280;823;49.028;8.454;2023-02-18T19:08:54;101119.41;;;14.97;48.84
1652;BME280;823;49.028;8.454;2023-02-18T19:13:55;101114.75;;;14.84;49.07
1652;BME280;823;49.028;8.454;2023-02-18T19:18:55;101120.03;;;14.82;49.23
1652;BME280;823;49.028;8.454;2023-02-18T19:23:55;101130.16;;;14.90;49.18
1652;BME280;823;49.028;8.454;2023-02-18T19:28:56;101131.06;;;14.89;49.37
1652;BME280;823;49.028;8.454;2023-02-18T19:33:56;101125.53;;;14.74;49.88
1652;BME280;823;49.028;8.454;2023-02-18T19:38:56;101122.81;;;14.77;49.74
1652;BME280;823;49.028;8.454;2023-02-18T19:43:57;101123.00;;;14.73;49.57
1652;BME280;823;49.028;8.454;2023-02-18T19:48:57;101127.00;;;14.81;49.79
1652;BME280;823;49.028;8.454;2023-02-18T19:53:57;101137.66;;;14.75;49.65
1652;BME280;823;49.028;8.454;2023-02-18T19:58:58;101135.88;;;14.76;49.46
1652;BME280;823;49.028;8.454;2023-02-18T20:03:59;101137.22;;;14.64;49.83
1652;BME280;823;49.028;8.454;2023-02-18T20:08:59;101143.31;;;14.63;50.11
1652;BME280;823;49.028;8.454;2023-02-18T20:13:59;101140.31;;;14.74;50.09
1652;BME280;823;49.028;8.454;2023-02-18T20:18:59;101136.94;;;14.72;49.97
1652;BME280;823;49.028;8.454;2023-02-18T20:24:00;101128.81;;;14.56;50.60
1652;BME280;823;49.028;8.454;2023-02-18T20:29:00;101135.03;;;14.75;50.19
1652;BME280;823;49.028;8.454;2023-02-18T20:34:00;101134.63;;;14.64;50.48
1652;BME280;823;49.028;8.454;2023-02-18T20:39:01;101133.28;;;14.52;50.87
1652;BME280;823;49.028;8.454;2023-02-18T20:44:01;101138.22;;;14.60;50.69
1652;BME280;823;49.028;8.454;2023-02-18T20:49:06;101138.38;;;14.55;51.17
1652;BME280;823;49.028;8.454;2023-02-18T20:54:11;101139.94;;;14.37;52.03
1652;BME280;823;49.028;8.454;2023-02-18T20:59:17;101143.75;;;14.51;51.92
1652;BME280;823;49.028;8.454;2023-02-18T21:04:18;101138.59;;;14.25;52.89
1652;BME280;823;49.028;8.454;2023-02-18T21:09:19;101143.75;;;14.27;53.08
1652;BME280;823;49.028;8.454;2023-02-18T21:14:20;101150.97;;;14.19;53.34
1652;BME280;823;49.028;8.454;2023-02-18T21:19:20;101149.75;;;14.29;53.08
1652;BME280;823;49.028;8.454;2023-02-18T21:24:21;101141.28;;;13.73;54.82
1652;BME280;823;49.028;8.454;2023-02-18T21:29:21;101153.56;;;13.95;54.29
1652;BME280;823;49.028;8.454;2023-02-18T21:34:22;101152.78;;;13.93;54.26
1652;BME280;823;49.028;8.454;2023-02-18T21:39:22;101154.63;;;13.89;54.54
1652;BME280;823;49.028;8.454;2023-02-18T21:44:22;101138.59;;;13.76;54.68
1652;BME280;823;49.028;8.454;2023-02-18T21:49:23;101136.53;;;13.61;55.29
1652;BME280;823;49.028;8.454;2023-02-18T21:54:31;101128.50;;;13.67;55.06
1652;BME280;823;49.028;8.454;2023-02-18T21:59:34;101125.16;;;13.63;55.21
1652;BME280;823;49.028;8.454;2023-02-18T22:04:35;101115.75;;;13.59;55.01
1652;BME280;823;49.028;8.454;2023-02-18T22:09:36;101122.50;;;13.65;54.91
1652;BME280;823;49.028;8.454;2023-02-18T22:14:37;101120.97;;;13.59;55.14
1652;BME280;823;49.028;8.454;2023-02-18T22:19:38;101112.06;;;13.67;54.75
1652;BME280;823;49.028;8.454;2023-02-18T22:24:39;101102.56;;;13.66;54.82
1652;BME280;823;49.028;8.454;2023-02-18T22:29:39;101089.78;;;13.59;54.96
1652;BME280;823;49.028;8.454;2023-02-18T22:34:39;101088.03;;;13.60;55.15
1652;BME280;823;49.028;8.454;2023-02-18T22:39:40;101090.84;;;13.54;55.25
1652;BME280;823;49.028;8.454;2023-02-18T22:44:40;101084.91;;;13.50;55.70
1652;BME280;823;49.028;8.454;2023-02-18T22:49:40;101076.56;;;13.40;56.16
1652;BME280;823;49.028;8.454;2023-02-18T22:54:41;101087.56;;;13.49;55.91
1652;BME280;823;49.028;8.454;2023-02-18T22:59:41;101094.84;;;13.37;56.63
1652;BME280;823;49.028;8.454;2023-02-18T23:04:41;101081.22;;;13.29;56.67
1652;BME280;823;49.028;8.454;2023-02-18T23:09:42;101079.19;;;13.12;57.03
1652;BME280;823;49.028;8.454;2023-02-18T23:14:42;101075.91;;;13.34;55.79
1652;BME280;823;49.028;8.454;2023-02-18T23:19:50;101071.50;;;13.36;55.84
1652;BME280;823;49.028;8.454;2023-02-18T23:24:50;101064.03;;;13.25;56.07
1652;BME280;823;49.028;8.454;2023-02-18T23:29:51;101069.06;;;13.31;55.94
1652;BME280;823;49.028;8.454;2023-02-18T23:34:52;101065.03;;;13.22;56.46
1652;BME280;823;49.028;8.454;2023-02-18T23:39:52;101068.97;;;13.07;56.67
1652;BME280;823;49.028;8.454;2023-02-18T23:44:52;101060.00;;;13.16;56.48
1652;BME280;823;49.028;8.454;2023-02-18T23:49:54;101059.97;;;13.18;56.51
1652;BME280;823;49.028;8.454;2023-02-18T23:54:54;101063.75;;;13.34;55.96
1652;BME280;823;49.028;8.454;2023-02-18T23:59:54;101076.63;;;13.39;55.78
